sensor_id;sensor_type;location;lat;lon;timestamp;pressure;altitude;pressure_sealevel;temperature;humidity
39341;BME280;25059;52.132;21.062;2023-04-29T05:34:55;100272.25;;;18.27;36.03
39341;BME280;25059;52.132;21.062;2023-04-29T05:37:43;100267.72;;;17.91;36.46
39341;BME280;25059;52.132;21.062;2023-04-29T05:40:27;100266.81;;;18.28;36.11
39341;BME280;25059;52.132;21.062;2023-04-29T05:43:12;100269.94;;;18.83;35.48
39341;BME280;25059;52.132;21.062;2023-04-29T05:45:57;100262.75;;;18.59;35.23
39341;BME280;25059;52.132;21.062;2023-04-29T05:48:42;100263.59;;;19.08;35.00
39341;BME280;25059;52.132;21.062;2023-04-29T05:51:26;100256.44;;;18.97;35.43
39341;BME280;25059;52.132;21.062;2023-04-29T05:54:15;100256.03;;;19.25;34.52
39341;BME280;25059;52.132;21.062;2023-04-29T05:57:00;100259.59;;;19.48;34.12
39341;BME280;25059;52.132;21.062;2023-04-29T05:59:47;100256.31;;;19.45;34.26
39341;BME280;25059;52.132;21.062;2023-04-29T06:02:31;100255.97;;;19.49;34.36
39341;BME280;25059;52.132;21.062;2023-04-29T06:05:16;100260.44;;;19.49;33.55
39341;BME280;25059;52.132;21.062;2023-04-29T06:08:01;100263.28;;;19.23;34.64
39341;BME280;25059;52.132;21.062;2023-04-29T06:10:47;100262.31;;;19.71;33.75
39341;BME280;25059;52.132;21.062;2023-04-29T06:13:35;100256.72;;;20.41;32.67
39341;BME280;25059;52.132;21.062;2023-04-29T06:16:19;100262.19;;;20.28;33.02
39341;BME280;25059;52.132;21.062;2023-04-29T06:19:04;100273.22;;;20.46;33.00
39341;BME280;25059;52.132;21.062;2023-04-29T06:21:50;100257.59;;;19.74;33.84
39341;BME280;25059;52.132;21.062;2023-04-29T06:24:35;100253.09;;;20.19;33.49
39341;BME280;25059;52.132;21.062;2023-04-29T06:27:21;100240.25;;;19.80;33.83
39341;BME280;25059;52.132;21.062;2023-04-29T06:30:06;100257.84;;;19.82;33.69
39341;BME280;25059;52.132;21.062;2023-04-29T06:32:51;100254.03;;;20.29;32.85
39341;BME280;25059;52.132;21.062;2023-04-29T06:35:38;100247.75;;;20.74;32.43
39341;BME280;25059;52.132;21.062;2023-04-29T06:38:24;100242.03;;;20.46;32.66
39341;BME280;25059;52.132;21.062;2023-04-29T06:41:09;100248.88;;;20.71;32.00
39341;BME280;25059;52.132;21.062;2023-04-29T06:43:53;100255.50;;;21.09;31.94
39341;BME280;25059;52.132;21.062;2023-04-29T06:46:41;100239.50;;;21.30;31.67
39341;BME280;25059;52.132;21.062;2023-04-29T06:49:29;100243.47;;;21.56;31.80
39341;BME280;25059;52.132;21.062;2023-04-29T06:52:14;100236.59;;;22.34;30.55
39341;BME280;25059;52.132;21.062;2023-04-29T06:55:00;100241.38;;;22.20;30.63
39341;BME280;25059;52.132;21.062;2023-04-29T06:57:45;100236.56;;;22.83;29.95
39341;BME280;25059;52.132;21.062;2023-04-29T07:00:30;100245.56;;;22.73;29.99
39341;BME280;25059;52.132;21.062;2023-04-29T07:03:16;100236.75;;;22.32;30.13
39341;BME280;25059;52.132;21.062;2023-04-29T07:06:02;100250.81;;;22.84;29.74
39341;BME280;25059;52.132;21.062;2023-04-29T07:08:46;100238.25;;;23.79;28.86
39341;BME280;25059;52.132;21.062;2023-04-29T07:11:31;100224.47;;;23.92;28.75
39341;BME280;25059;52.132;21.062;2023-04-29T07:14:16;100220.66;;;23.58;28.72
39341;BME280;25059;52.132;21.062;2023-04-29T07:17:00;100228.72;;;23.48;29.23
39341;BME280;25059;52.132;21.062;2023-04-29T07:19:45;100229.94;;;24.00;28.96
39341;BME280;25059;52.132;21.062;2023-04-29T07:22:30;100222.78;;;23.91;28.44
39341;BME280;25059;52.132;21.062;2023-04-29T07:25:16;100221.97;;;23.25;29.05
39341;BME280;25059;52.132;21.062;2023-04-29T07:28:00;100217.13;;;24.22;28.75
39341;BME280;25059;52.132;21.062;2023-04-29T07:30:45;100228.00;;;23.56;28.57
39341;BME280;25059;52.132;21.062;2023-04-29T07:33:31;100224.59;;;23.53;28.51
39341;BME280;25059;52.132;21.062;2023-04-29T07:36:17;100230.13;;;24.26;27.98
39341;BME280;25059;52.132;21.062;2023-04-29T07:39:02;100223.34;;;24.22;28.06
39341;BME280;25059;52.132;21.062;2023-04-29T07:41:46;100222.88;;;24.54;27.47
39341;BME280;25059;52.132;21.062;2023-04-29T07:44:31;100226.47;;;23.90;28.18
39341;BME280;25059;52.132;21.062;2023-04-29T07:47:17;100220.19;;;23.72;28.18
39341;BME280;25059;52.132;21.062;2023-04-29T07:50:02;100219.63;;;22.83;29.04
39341;BME280;25059;52.132;21.062;2023-04-29T07:52:49;100230.41;;;23.39;28.79
39341;BME280;25059;52.132;21.062;2023-04-29T07:55:36;100219.34;;;23.99;28.01
39341;BME280;25059;52.132;21.062;2023-04-29T07:58:21;100230.69;;;23.56;28.27
39341;BME280;25059;52.132;21.062;2023-04-29T08:01:06;100223.47;;;24.21;27.77
39341;BME280;25059;52.132;21.062;2023-04-29T08:03:52;100230.09;;;24.54;27.83
39341;BME280;25059;52.132;21.062;2023-04-29T08:06:37;100220.09;;;24.46;27.48
39341;BME280;25059;52.132;21.062;2023-04-29T08:09:22;100233.38;;;23.93;28.05
39341;BME280;25059;52.132;21.062;2023-04-29T08:12:07;100241.28;;;23.47;28.95
39341;BME280;25059;52.132;21.062;2023-04-29T08:14:51;100217.72;;;24.43;28.21
39341;BME280;25059;52.132;21.062;2023-04-29T08:17:36;100220.22;;;24.27;28.26
39341;BME280;25059;52.132;21.062;2023-04-29T08:20:20;100229.78;;;24.39;27.84
39341;BME280;25059;52.132;21.062;2023-04-29T08:23:05;100220.69;;;24.12;28.26
39341;BME280;25059;52.132;21.062;2023-04-29T08:25:51;100223.75;;;24.27;28.36
39341;BME280;25059;52.132;21.062;2023-04-29T08:28:35;100226.56;;;24.71;27.73
39341;BME280;25059;52.132;21.062;2023-04-29T08:31:21;100224.03;;;24.69;27.71
39341;BME280;25059;52.132;21.062;2023-04-29T08:34:05;100215.19;;;24.95;27.46
39341;BME280;25059;52.132;21.062;2023-04-29T08:36:50;100215.13;;;24.87;26.87
39341;BME280;25059;52.132;21.062;2023-04-29T08:39:35;100208.06;;;25.29;27.35
39341;BME280;25059;52.132;21.062;2023-04-29T08:42:35;100209.06;;;25.54;26.69
39341;BME280;25059;52.132;21.062;2023-04-29T08:45:20;100212.97;;;24.90;27.40
39341;BME280;25059;52.132;21.062;2023-04-29T08:48:07;100213.28;;;24.52;27.29
39341;BME280;25059;52.132;21.062;2023-04-29T08:50:56;100211.34;;;25.15;27.10
39341;BME280;25059;52.132;21.062;2023-04-29T08:53:42;100207.03;;;25.74;26.38
39341;BME280;25059;52.132;21.062;2023-04-29T08:56:29;100203.09;;;25.94;26.36
39341;BME280;25059;52.132;21.062;2023-04-29T08:59:14;100211.69;;;25.98;26.63
39341;BME280;25059;52.132;21.062;2023-04-29T09:01:59;100212.38;;;26.42;26.55
39341;BME280;25059;52.132;21.062;2023-04-29T09:07:34;100205.22;;;25.05;27.05
39341;BME280;25059;52.132;21.062;2023-04-29T09:10:18;100213.31;;;25.83;26.90
39341;BME280;25059;52.132;21.062;2023-04-29T09:13:04;100192.72;;;25.22;26.99
39341;BME280;25059;52.132;21.062;2023-04-29T09:15:51;100203.84;;;27.03;25.67
39341;BME280;25059;52.132;21.062;2023-04-29T09:18:51;100204.63;;;26.47;26.13
39341;BME280;25059;52.132;21.062;2023-04-29T09:21:35;100201.94;;;26.55;25.99
39341;BME280;25059;52.132;21.062;2023-04-29T09:24:25;100201.56;;;26.42;26.15
39341;BME280;25059;52.132;21.062;2023-04-29T09:27:10;100192.38;;;27.18;25.94
39341;BME280;25059;52.132;21.062;2023-04-29T09:30:09;100197.34;;;27.70;25.24
39341;BME280;25059;52.132;21.062;2023-04-29T09:33:07;100198.69;;;27.74;24.78
39341;BME280;25059;52.132;21.062;2023-04-29T09:35:54;100194.84;;;28.92;23.58
39341;BME280;25059;52.132;21.062;2023-04-29T09:38:53;100192.13;;;28.92;23.71
39341;BME280;25059;52.132;21.062;2023-04-29T09:44:30;100187.97;;;29.56;23.22
39341;BME280;25059;52.132;21.062;2023-04-29T09:47:15;100192.25;;;29.80;22.64
39341;BME280;25059;52.132;21.062;2023-04-29T09:50:10;100172.34;;;30.39;22.93
39341;BME280;25059;52.132;21.062;2023-04-29T09:52:58;100164.78;;;30.98;22.11
39341;BME280;25059;52.132;21.062;2023-04-29T09:56:02;100182.75;;;31.21;21.92
39341;BME280;25059;52.132;21.062;2023-04-29T09:58:48;100178.47;;;30.62;22.56
39341;BME280;25059;52.132;21.062;2023-04-29T10:01:34;100167.38;;;31.06;22.43
39341;BME280;25059;52.132;21.062;2023-04-29T10:04:22;100161.88;;;31.21;22.26
39341;BME280;25059;52.132;21.062;2023-04-29T10:07:07;100170.25;;;30.77;22.16
39341;BME280;25059;52.132;21.062;2023-04-29T10:09:53;100144.25;;;30.89;22.00
39341;BME280;25059;52.132;21.062;2023-04-29T10:12:39;100156.03;;;31.93;20.84
39341;BME280;25059;52.132;21.062;2023-04-29T10:15:35;100148.19;;;33.77;19.98
39341;BME280;25059;52.132;21.062;2023-04-29T10:18:28;100147.09;;;35.60;18.52
39341;BME280;25059;52.132;21.062;2023-04-29T10:21:17;100148.94;;;36.74;17.50
39341;BME280;25059;52.132;21.062;2023-04-29T10:24:02;100137.38;;;36.01;16.82
39341;BME280;25059;52.132;21.062;2023-04-29T10:26:50;100148.03;;;35.29;17.32
39341;BME280;25059;52.132;21.062;2023-04-29T10:29:36;100148.56;;;35.19;17.69
39341;BME280;25059;52.132;21.062;2023-04-29T10:32:21;100150.38;;;33.42;18.53
39341;BME280;25059;52.132;21.062;2023-04-29T10:35:11;100140.34;;;35.63;17.44
39341;BME280;25059;52.132;21.062;2023-04-29T10:38:00;100135.41;;;36.79;16.74
39341;BME280;25059;52.132;21.062;2023-04-29T10:40:46;100132.78;;;37.19;16.79
39341;BME280;25059;52.132;21.062;2023-04-29T10:43:35;100139.34;;;38.34;15.61
39341;BME280;25059;52.132;21.062;2023-04-29T10:46:22;100143.00;;;39.18;15.13
39341;BME280;25059;52.132;21.062;2023-04-29T10:49:10;100128.44;;;38.67;15.44
39341;BME280;25059;52.132;21.062;2023-04-29T10:52:02;100138.13;;;37.73;15.34
39341;BME280;25059;52.132;21.062;2023-04-29T10:55:01;100136.75;;;38.27;15.35
39341;BME280;25059;52.132;21.062;2023-04-29T10:57:46;100136.28;;;37.90;15.37
39341;BME280;25059;52.132;21.062;2023-04-29T11:00:32;100148.97;;;38.20;15.44
39341;BME280;25059;52.132;21.062;2023-04-29T11:06:41;100129.59;;;40.04;14.09
39341;BME280;25059;52.132;21.062;2023-04-29T11:09:27;100127.19;;;39.47;14.26
39341;BME280;25059;52.132;21.062;2023-04-29T11:12:19;100126.16;;;41.10;14.12
39341;BME280;25059;52.132;21.062;2023-04-29T11:15:06;100123.66;;;42.23;12.78
39341;BME280;25059;52.132;21.062;2023-04-29T11:17:58;100124.53;;;41.14;13.83
39341;BME280;25059;52.132;21.062;2023-04-29T11:23:50;100115.88;;;39.87;14.06
39341;BME280;25059;52.132;21.062;2023-04-29T11:26:35;100108.13;;;41.34;13.24
39341;BME280;25059;52.132;21.062;2023-04-29T11:29:23;100120.97;;;42.89;13.03
39341;BME280;25059;52.132;21.062;2023-04-29T11:32:09;100111.66;;;43.70;12.98
39341;BME280;25059;52.132;21.062;2023-04-29T11:34:54;100118.63;;;41.37;13.64
39341;BME280;25059;52.132;21.062;2023-04-29T11:37:40;100109.53;;;38.26;14.37
39341;BME280;25059;52.132;21.062;2023-04-29T11:40:25;100111.53;;;40.40;14.05
39341;BME280;25059;52.132;21.062;2023-04-29T11:43:17;100110.47;;;42.86;12.93
39341;BME280;25059;52.132;21.062;2023-04-29T11:46:03;100114.75;;;41.38;13.41
39341;BME280;25059;52.132;21.062;2023-04-29T11:48:48;100096.81;;;37.28;14.99
39341;BME280;25059;52.132;21.062;2023-04-29T11:51:34;100102.16;;;36.04;16.31
39341;BME280;25059;52.132;21.062;2023-04-29T11:54:19;100102.22;;;37.63;15.73
39341;BME280;25059;52.132;21.062;2023-04-29T11:57:04;100092.94;;;39.82;14.03
39341;BME280;25059;52.132;21.062;2023-04-29T11:59:49;100085.22;;;40.59;13.95
